Flight Track Log - Related Links

Times and Time Zones

All times are in EDT time to prevent confusion due to time zone crossing. See the UAL1595 flight status page for this flight to view local times or setup timezone preferences in your user account.

Time Position Orientation Groundspeed Altitude Reporting Facility
EDT Latitude Longitude Course Direction KTS MPH feet Rate Location/Type
Fri 07:57:19 AM 41.4200 -81.8350 50° Northeast 170 196 1,300  Level FlightAware ADS-B
Fri 07:57:31 AM 41.4240 -81.8220 68° East 170 196 1,800 2,045 Climbing FlightAware ADS-B
Fri 07:58:03 AM 41.4260 -81.7840 86° East 215 247 2,800 2,542 Climbing FlightAware ADS-B
Fri 07:58:30 AM 41.4270 -81.7480 88° East 228 262 4,300 2,945 Climbing FlightAware ADS-B
Fri 07:58:58 AM 41.4200 -81.7090 103° East 258 297 5,500 2,850 Climbing FlightAware ADS-B
Fri 07:59:10 AM 41.4100 -81.6970 138° Southeast 267 307 6,200 3,214 Climbing FlightAware ADS-B
Fri 07:59:26 AM 41.3910 -81.6890 162° South 280 322 7,000 3,000 Climbing FlightAware ADS-B
Fri 07:59:54 AM 41.3550 -81.7070 201° Southwest 303 349 8,400 3,319 Climbing FlightAware ADS-B
Fri 08:00:13 AM 41.3330 -81.7230 209° Southwest 300 345 9,600 2,486 Climbing FlightAware ADS-B
Fri 08:01:04 AM 41.2650 -81.7740 209° Southwest 354 407 11,300 2,374 Climbing FlightAware ADS-B
Fri 08:01:44 AM 41.2060 -81.8180 209° Southwest 374 430 13,200 2,964 Climbing FlightAware ADS-B
Fri 08:02:27 AM 41.1390 -81.8680 209° Southwest 383 441 15,400 2,886 Climbing FlightAware ADS-B
Fri 08:03:03 AM 41.0830 -81.9100 209° Southwest 394 453 17,000 2,526 Climbing FlightAware ADS-B
Fri 08:03:43 AM 41.0170 -81.9590 209° Southwest 409 471 18,600 2,341 Climbing FlightAware ADS-B
Fri 08:04:25 AM 40.9450 -82.0120 209° Southwest 427 491 20,200 2,268 Climbing FlightAware ADS-B
Fri 08:05:05 AM 40.8770 -82.0630 210° Southwest 436 502 21,700 2,526 Climbing FlightAware ADS-B
Fri 08:05:41 AM 40.8120 -82.1100 209° Southwest 437 503 23,400 2,430 Climbing FlightAware ADS-B
Fri 08:06:24 AM 40.7370 -82.1650 209° Southwest 444 511 24,900 1,929 Climbing FlightAware ADS-B
Fri 08:07:05 AM 40.6610 -82.2200 209° Southwest 456 525 26,100 1,663 Climbing FlightAware ADS-B
Fri 08:07:47 AM 40.5810 -82.2780 209° Southwest 468 539 27,200 1,636 Climbing FlightAware ADS-B
Fri 08:08:33 AM 40.4930 -82.3420 209° Southwest 474 545 28,500 1,535 Climbing FlightAware ADS-B
Fri 08:09:13 AM 40.4160 -82.3970 209° Southwest 481 554 29,400 1,650 Climbing FlightAware ADS-B
Fri 08:09:53 AM 40.3380 -82.4520 208° Southwest 480 552 30,700 1,737 Climbing FlightAware ADS-B
Fri 08:10:29 AM 40.2710 -82.5000 209° Southwest 481 554 31,600 1,588 Climbing FlightAware ADS-B
Fri 08:11:35 AM 40.1520 -82.5760 206° Southwest 475 547 33,400 1,297 Climbing FlightAware ADS-B
Fri 08:12:20 AM 40.0370 -82.5940 187° South 474 545 34,000 494 Climbing FlightAware ADS-B
Fri 08:13:00 AM 39.9490 -82.6010 183° South 474 545 34,100 723 Climbing FlightAware ADS-B
Fri 08:13:43 AM 39.8570 -82.6080 183° South 470 541 35,000 651 Climbing FlightAware ADS-B
Fri 08:14:23 AM 39.7700 -82.6140 183° South 466 536 35,000  Level FlightAware ADS-B
Fri 08:15:03 AM 39.6840 -82.6210 184° South 464 534 35,000  Level FlightAware ADS-B
Fri 08:15:45 AM 39.5930 -82.6270 183° South 463 533 35,000  Level FlightAware ADS-B
Fri 08:16:31 AM 39.4940 -82.6340 183° South 462 532 35,000  Level FlightAware ADS-B
Fri 08:17:11 AM 39.4090 -82.6400 183° South 461 531 35,000  Level FlightAware ADS-B
Fri 08:17:53 AM 39.3210 -82.6470 184° South 460 529 35,000  Level FlightAware ADS-B
Fri 08:18:29 AM 39.2440 -82.6520 183° South 460 529 35,000  Level FlightAware ADS-B
Fri 08:19:13 AM 39.1500 -82.6590 183° South 460 529 35,000  Level FlightAware ADS-B
Fri 08:19:49 AM 39.0740 -82.6640 183° South 459 528 35,000  Level FlightAware ADS-B
Fri 08:20:29 AM 38.9890 -82.6700 183° South 459 528 35,000  Level FlightAware ADS-B
Fri 08:21:09 AM 38.9060 -82.6760 183° South 458 527 35,000  Level FlightAware ADS-B
Fri 08:21:50 AM 38.8200 -82.6820 183° South 457 526 35,000  Level FlightAware ADS-B
Fri 08:22:29 AM 38.7360 -82.6880 183° South 455 524 35,000  Level FlightAware ADS-B
Fri 08:23:15 AM 38.6380 -82.6950 183° South 451 519 35,000  Level FlightAware ADS-B
Fri 08:23:57 AM 38.5550 -82.7010 183° South 444 511 35,000  Level FlightAware ADS-B
Fri 08:24:41 AM 38.4620 -82.7080 183° South 438 504 35,000  Level FlightAware ADS-B
Fri 08:25:13 AM 38.3980 -82.7120 183° South 436 502 35,000  Level FlightAware ADS-B
Fri 08:25:57 AM 38.3100 -82.7190 184° South 434 499 35,000  Level FlightAware ADS-B
Fri 08:26:39 AM 38.2240 -82.7240 183° South 432 497 35,000  Level FlightAware ADS-B
Fri 08:27:21 AM 38.1400 -82.7300 183° South 430 495 35,000  Level FlightAware ADS-B
Fri 08:28:03 AM 38.0580 -82.7360 183° South 429 494 35,000  Level FlightAware ADS-B
Fri 08:28:47 AM 37.9710 -82.7420 183° South 429 494 35,000  Level FlightAware ADS-B
Fri 08:29:21 AM 37.9021 -82.7470 183° South 430 495 35,000  Level FlightAware ADS-B
Fri 08:29:52 AM 37.8417 -82.7512 183° South 430 495 35,000  Level FlightAware ADS-B
Fri 08:30:22 AM 37.7818 -82.7553 183° South 429 494 35,000  Level FlightAware ADS-B
Fri 08:30:52 AM 37.7220 -82.7594 183° South 427 491 35,000  Level FlightAware ADS-B
Fri 08:31:26 AM 37.6571 -82.7706 188° South 415 478 35,000  Level FlightAware ADS-B
Fri 08:32:01 AM 37.5967 -82.8047 204° Southwest 409 471 35,000  Level FlightAware ADS-B
Fri 08:32:34 AM 37.5420 -82.8407 208° Southwest 405 466 35,000  Level FlightAware ADS-B
Fri 08:33:05 AM 37.4902 -82.8749 208° Southwest 403 464 35,000  Level FlightAware ADS-B
Fri 08:33:36 AM 37.4402 -82.9078 208° Southwest 404 465 35,000  Level FlightAware ADS-B
Fri 08:34:07 AM 37.3874 -82.9425 208° Southwest 405 466 35,000  Level FlightAware ADS-B
Fri 08:34:38 AM 37.3360 -82.9763 208° Southwest 404 465 35,000  Level FlightAware ADS-B
Fri 08:35:09 AM 37.2852 -83.0095 207° Southwest 405 466 35,000  Level FlightAware ADS-B
Fri 08:35:40 AM 37.2331 -83.0436 208° Southwest 406 467 35,000  Level FlightAware ADS-B
Fri 08:36:11 AM 37.1817 -83.0775 208° Southwest 407 468 35,000  Level FlightAware ADS-B
Fri 08:36:41 AM 37.1315 -83.1101 207° Southwest 407 468 35,000  Level FlightAware ADS-B
Fri 08:37:12 AM 37.0801 -83.1432 207° Southwest 407 468 35,000  Level FlightAware ADS-B
Fri 08:37:44 AM 37.0272 -83.1775 207° Southwest 406 467 35,000  Level FlightAware ADS-B
Fri 08:38:14 AM 36.9771 -83.2100 207° Southwest 406 467 35,000  Level FlightAware ADS-B
Fri 08:38:44 AM 36.9268 -83.2430 208° Southwest 408 470 35,000  Level FlightAware ADS-B
Fri 08:39:15 AM 36.8754 -83.2768 208° Southwest 409 471 35,000  Level FlightAware ADS-B
Fri 08:39:46 AM 36.8220 -83.3112 207° Southwest 411 473 35,000  Level FlightAware ADS-B
Fri 08:40:17 AM 36.7706 -83.3442 207° Southwest 412 474 35,000  Level FlightAware ADS-B
Fri 08:40:47 AM 36.7193 -83.3771 207° Southwest 413 475 35,000  Level FlightAware ADS-B
Fri 08:41:18 AM 36.6660 -83.4112 207° Southwest 414 476 35,000  Level FlightAware ADS-B
Fri 08:41:49 AM 36.6128 -83.4452 207° Southwest 415 478 35,000  Level FlightAware ADS-B
Fri 08:42:20 AM 36.5610 -83.4784 207° Southwest 413 475 35,000  Level FlightAware ADS-B
Fri 08:42:51 AM 36.5084 -83.5123 207° Southwest 413 475 35,000  Level FlightAware ADS-B
Fri 08:43:21 AM 36.4562 -83.5456 207° Southwest 413 475 35,000  Level FlightAware ADS-B
Fri 08:43:52 AM 36.4044 -83.5784 207° Southwest 412 474 35,000  Level FlightAware ADS-B
Fri 08:44:22 AM 36.3528 -83.6113 207° Southwest 413 475 35,000  Level FlightAware ADS-B
Fri 08:44:53 AM 36.3014 -83.6440 207° Southwest 413 475 35,000  Level FlightAware ADS-B
Fri 08:45:23 AM 36.2505 -83.6764 207° Southwest 412 474 35,000  Level FlightAware ADS-B
Fri 08:45:53 AM 36.1984 -83.7096 207° Southwest 413 475 35,000  Level FlightAware ADS-B
Fri 08:46:23 AM 36.1471 -83.7421 207° Southwest 413 475 35,000  Level FlightAware ADS-B
Fri 08:46:54 AM 36.0959 -83.7745 207° Southwest 414 476 35,000  Level FlightAware ADS-B
Fri 08:47:24 AM 36.0441 -83.8072 207° Southwest 414 476 35,000  Level FlightAware ADS-B
Fri 08:47:57 AM 35.9883 -83.8423 207° Southwest 414 476 35,000  Level FlightAware ADS-B
Fri 08:48:28 AM 35.9340 -83.8762 207° Southwest 414 476 35,000  Level FlightAware ADS-B
Fri 08:48:40 AM 35.9128 -83.8873 203° Southwest 416 479 35,000  Level FlightAware ADS-B
Fri 08:48:59 AM 35.8786 -83.9006 197° South 417 480 35,000  Level FlightAware ADS-B
Fri 08:49:29 AM 35.8215 -83.9152 192° South 419 482 35,000  Level FlightAware ADS-B
Fri 08:49:59 AM 35.7643 -83.9291 191° South 419 482 35,000  Level FlightAware ADS-B
Fri 08:50:30 AM 35.7054 -83.9434 191° South 419 482 35,000  Level FlightAware ADS-B
Fri 08:51:09 AM 35.6326 -83.9612 191° South 418 481 35,000  Level FlightAware ADS-B
Fri 08:51:39 AM 35.5755 -83.9749 191° South 418 481 35,000  Level FlightAware ADS-B
Fri 08:52:12 AM 35.5125 -83.9900 191° South 416 479 35,000  Level FlightAware ADS-B
Fri 08:52:44 AM 35.4518 -84.0046 191° South 415 478 35,000  Level FlightAware ADS-B
Fri 08:53:15 AM 35.3944 -84.0186 191° South 413 475 35,000  Level FlightAware ADS-B
Fri 08:53:46 AM 35.3367 -84.0326 191° South 412 474 35,000  Level FlightAware ADS-B
Fri 08:54:16 AM 35.2798 -84.0463 191° South 412 474 35,000  Level FlightAware ADS-B
Fri 08:54:53 AM 35.2098 -84.0631 191° South 411 473 35,000  Level FlightAware ADS-B
Fri 08:55:36 AM 35.1320 -84.0820 191° South 410 472 35,000  Level FlightAware ADS-B
Fri 08:55:44 AM 35.1164 -84.0855 190° South 411 473 35,000  Level FlightAware ADS-B
Fri 08:56:14 AM 35.0591 -84.0990 191° South 412 474 35,000  Level FlightAware ADS-B
Fri 08:56:44 AM 35.0028 -84.1125 191° South 412 474 35,000  Level FlightAware ADS-B
Fri 08:57:42 AM 34.8940 -84.1385 191° South 414 476 35,000  Level FlightAware ADS-B
Fri 08:58:13 AM 34.8361 -84.1524 191° South 416 479 35,000  Level FlightAware ADS-B
Fri 08:58:52 AM 34.7628 -84.1697 191° South 417 480 35,000  Level FlightAware ADS-B
Fri 08:59:38 AM 34.6760 -84.1900 191° South 419 482 35,000  Level FlightAware ADS-B
Fri 09:00:17 AM 34.6000 -84.2083 191° South 421 484 35,000  Level FlightAware ADS-B
Fri 09:00:48 AM 34.5412 -84.2221 191° South 423 487 35,000  Level FlightAware ADS-B
Fri 09:01:23 AM 34.4745 -84.2378 191° South 425 489 35,000  Level FlightAware ADS-B
Fri 09:02:22 AM 34.3600 -84.2650 191° South 425 489 35,000  Level FlightAware ADS-B
Fri 09:03:02 AM 34.2830 -84.2830 191° South 421 484 35,000  Level FlightAware ADS-B
Fri 09:03:46 AM 34.1980 -84.3030 191° South 419 482 35,000  Level FlightAware ADS-B
Fri 09:04:26 AM 34.1230 -84.3200 191° South 419 482 35,000  Level FlightAware ADS-B
Fri 09:05:10 AM 34.0390 -84.3400 191° South 420 483 35,000  Level FlightAware ADS-B
Fri 09:05:46 AM 33.9701 -84.3562 191° South 421 484 35,000  Level FlightAware ADS-B
Fri 09:06:16 AM 33.9113 -84.3697 191° South 422 486 35,000  Level FlightAware ADS-B
Fri 09:06:50 AM 33.8464 -84.3848 191° South 421 484 35,000  Level FlightAware ADS-B
Fri 09:07:24 AM 33.7813 -84.3998 191° South 420 483 35,000  Level FlightAware ADS-B
Fri 09:08:02 AM 33.7090 -84.4164 191° South 420 483 35,000  Level FlightAware ADS-B
Fri 09:08:34 AM 33.6480 -84.4284 189° South 420 483 35,000  Level FlightAware ADS-B
Fri 09:09:16 AM 33.5750 -84.4130 170° South 424 488 35,000  Level FlightAware ADS-B
Fri 09:09:41 AM 33.5197 -84.3897 161° South 431 496 35,000  Level FlightAware ADS-B
Fri 09:10:37 AM 33.4150 -84.3460 161° South 431 496 35,000  Level FlightAware ADS-B
Fri 09:11:43 AM 33.2940 -84.2950 161° South 429 494 35,000  Level FlightAware ADS-B
Fri 09:12:23 AM 33.2180 -84.2640 161° South 428 493 35,000  Level FlightAware ADS-B
Fri 09:13:04 AM 33.1430 -84.2320 160° South 428 493 35,000  Level FlightAware ADS-B
Fri 09:13:40 AM 33.0730 -84.2030 161° South 427 491 35,000  Level FlightAware ADS-B
Fri 09:14:24 AM 32.9890 -84.1690 161° South 426 490 35,000  Level FlightAware ADS-B
Fri 09:15:00 AM 32.9240 -84.1420 161° South 426 490 35,000  Level FlightAware ADS-B
Fri 09:15:42 AM 32.8450 -84.1090 161° South 426 490 35,000  Level FlightAware ADS-B
Fri 09:16:22 AM 32.7710 -84.0790 161° South 425 489 35,000  Level FlightAware ADS-B
Fri 09:17:00 AM 32.7000 -84.0500 161° South 426 490 35,000  Level FlightAware ADS-B
Fri 09:17:46 AM 32.6130 -84.0140 161° South 427 491 35,000  Level FlightAware ADS-B
Fri 09:18:24 AM 32.5430 -83.9850 161° South 429 494 35,000  Level FlightAware ADS-B
Fri 09:19:10 AM 32.4560 -83.9500 161° South 429 494 35,000  Level FlightAware ADS-B
Fri 09:19:48 AM 32.3860 -83.9210 161° South 427 491 35,000  Level FlightAware ADS-B
Fri 09:20:38 AM 32.2920 -83.8830 161° South 424 488 35,000  Level FlightAware ADS-B
Fri 09:21:38 AM 32.1950 -83.8420 160° South 424 488 35,000  Level FlightAware ADS-B
Fri 09:22:16 AM 32.1360 -83.8160 160° South 424 488 35,000  Level FlightAware ADS-B
Fri 09:23:04 AM 32.0610 -83.7840 160° South 424 488 35,000  Level FlightAware ADS-B
Fri 09:23:41 AM 32.0030 -83.7590 160° South 424 488 35,000  Level FlightAware ADS-B
Fri 09:24:17 AM 31.9460 -83.7350 160° South 424 488 35,000  Level FlightAware ADS-B
Fri 09:25:03 AM 31.8740 -83.7040 160° South 424 488 35,000  Level FlightAware ADS-B
Fri 09:25:51 AM 31.7990 -83.6720 160° South 424 488 35,000  Level FlightAware ADS-B
Fri 09:26:28 AM 31.7410 -83.6470 160° South 424 488 35,000  Level FlightAware ADS-B
Fri 09:27:28 AM 31.6470 -83.6070 160° South 424 488 35,000  Level FlightAware ADS-B
Fri 09:28:05 AM 31.5890 -83.5820 160° South 424 488 35,000  Level FlightAware ADS-B
Fri 09:28:53 AM 31.5140 -83.5500 160° South 424 488 35,000  Level FlightAware ADS-B
Fri 09:29:29 AM 31.4570 -83.5260 160° South 424 488 35,000  Level FlightAware ADS-B
Fri 09:30:05 AM 31.4010 -83.5020 160° South 424 488 35,000  Level FlightAware ADS-B
Fri 09:30:44 AM 31.3400 -83.4760 160° South 424 488 35,000 1,739 Level FlightAware ADS-B
Fri 09:31:14 AM 31.0903 -83.4019 160° South 444 511 37,000 1,333 Climbing Jacksonville Center
Fri 09:32:14 AM 30.9778 -83.3578 161° South 438 504 37,000  Level Jacksonville Center
Fri 09:33:14 AM 30.8631 -83.3089 160° South 438 504 37,000  Level Jacksonville Center
Fri 09:34:14 AM 30.7628 -83.2722 163° South 437 503 37,000  Level Jacksonville Center
Fri 09:35:14 AM 30.6525 -83.2136 155° Southeast 437 503 37,000  Level Jacksonville Center
Fri 09:36:14 AM 30.5397 -83.1578 157° South 437 503 37,000  Level Jacksonville Center
Fri 09:37:14 AM 30.4272 -83.1022 157° South 437 503 37,000  Level Jacksonville Center
Fri 09:38:14 AM 30.3122 -83.0442 156° South 437 503 37,000  Level Jacksonville Center
Fri 09:44:07 AM 29.6370 -82.7110 156° South 37,000  Level FlightAware ADS-B
Fri 09:44:48 AM 29.5650 -82.6750 156° South 435 501 37,000  Level FlightAware ADS-B
Fri 09:45:29 AM 29.4910 -82.6450 161° South 435 501 37,000  Level FlightAware ADS-B
Fri 09:46:05 AM 29.4340 -82.6160 156° South 435 501 37,000  Level FlightAware ADS-B
Fri 09:46:21 AM 29.3670 -82.6660 213° Southwest 435 501 37,000  Level FlightAware ADS-B
Fri 09:47:01 AM 29.2840 -82.6790 188° South 443 510 37,000  Level FlightAware ADS-B
Fri 09:47:46 AM 29.1950 -82.6980 191° South 442 509 37,000  Level FlightAware ADS-B
Fri 09:48:26 AM 29.1160 -82.7160 191° South 442 509 37,000  Level FlightAware ADS-B
Fri 09:49:06 AM 29.0340 -82.7340 191° South 443 510 37,000  Level FlightAware ADS-B
Fri 09:49:51 AM 28.9420 -82.7550 191° South 444 511 37,000  Level FlightAware ADS-B
Fri 09:50:30 AM 28.8750 -82.7700 191° South 444 511 37,000  Level FlightAware ADS-B
Fri 09:51:06 AM 28.7910 -82.7890 191° South 445 512 37,000  Level FlightAware ADS-B
Fri 09:51:30 AM 28.7410 -82.8010 192° South 445 512 37,000  Level FlightAware ADS-B
Fri 09:52:11 AM 28.6590 -82.8140 188° South 437 503 37,000  Level FlightAware ADS-B
Fri 09:52:56 AM 28.5670 -82.8330 190° South 438 504 37,000  Level FlightAware ADS-B
Fri 09:53:31 AM 28.4970 -82.8470 190° South 444 511 37,000 225 Level FlightAware ADS-B
Fri 09:54:16 AM 28.4030 -82.8670 191° South 458 527 37,300 565 Climbing FlightAware ADS-B
Fri 09:54:56 AM 28.3190 -82.8850 191° South 455 524 37,800 847 Climbing FlightAware ADS-B
Fri 09:55:41 AM 28.2240 -82.9050 191° South 455 524 38,500 880 Climbing FlightAware ADS-B
Fri 09:56:11 AM 28.1620 -82.9190 191° South 457 526 38,900 405 Climbing FlightAware ADS-B
Fri 09:56:55 AM 28.0660 -82.9400 191° South 460 529 39,000 71 Climbing FlightAware ADS-B
Fri 09:57:36 AM 27.9800 -82.9620 193° South 461 531 39,000  Level FlightAware ADS-B
Fri 09:58:16 AM 27.8950 -82.9840 193° South 461 531 39,000 -63 Level FlightAware ADS-B
Fri 09:59:11 AM 27.7780 -82.9810 179° South 463 533 38,900 -505 Descending FlightAware ADS-B
Fri 09:59:51 AM 27.6980 -82.9630 169° South 458 527 38,200 -1,020 Descending FlightAware ADS-B
Fri 10:00:51 AM 27.5710 -82.9290 167° South 446 513 37,200 -933 Descending FlightAware ADS-B
Fri 10:01:21 AM 27.5130 -82.9020 158° South 449 517 36,800 -960 Descending FlightAware ADS-B
Fri 10:02:06 AM 27.4310 -82.8480 150° Southeast 448 516 36,000 -1,059 Descending FlightAware ADS-B
Fri 10:02:46 AM 27.3630 -82.7950 145° Southeast 438 504 35,300 -750 Descending FlightAware ADS-B
Fri 10:03:26 AM 27.3010 -82.7360 140° Southeast 445 512 35,000 -282 Descending FlightAware ADS-B
Fri 10:04:11 AM 27.2260 -82.6750 144° Southeast 438 504 34,900 -500 Descending FlightAware ADS-B
Fri 10:04:50 AM 27.1610 -82.6220 144° Southeast 443 510 34,300 -769 Descending FlightAware ADS-B
Fri 10:06:08 AM 27.0360 -82.5170 143° Southeast 448 516 33,400 -982 Descending FlightAware ADS-B
Fri 10:06:51 AM 26.9750 -82.4260 127° Southeast 32,300 -1,241 Descending FlightAware ADS-B
Fri 10:07:35 AM 26.9250 -82.3430 124° Southeast 460 529 31,600 -975 Descending FlightAware ADS-B
Fri 10:08:11 AM 26.8840 -82.2750 124° Southeast 442 509 31,000 -986 Descending FlightAware ADS-B
Fri 10:08:48 AM 26.8420 -82.2070 125° Southeast 443 510 30,400 -1,037 Descending FlightAware ADS-B
Fri 10:09:32 AM 26.7880 -82.1170 124° Southeast 439 505 29,600 -1,079 Descending FlightAware ADS-B
Fri 10:10:17 AM 26.7380 -82.0350 124° Southeast 436 502 28,800 -1,059 Descending FlightAware ADS-B
Fri 10:10:57 AM 26.6910 -81.9600 125° Southeast 432 497 28,100 -1,605 Descending FlightAware ADS-B
Fri 10:11:43 AM 26.6410 -81.8800 125° Southeast 421 484 26,500 -2,233 Descending FlightAware ADS-B
Fri 10:12:23 AM 26.5960 -81.8080 125° Southeast 414 476 24,900 -2,320 Descending FlightAware ADS-B
Fri 10:12:58 AM 26.5560 -81.7450 125° Southeast 406 467 23,600 -2,160 Descending FlightAware ADS-B
Fri 10:13:38 AM 26.5140 -81.6770 125° Southeast 397 457 22,200 -2,148 Descending FlightAware ADS-B
Fri 10:14:19 AM 26.4720 -81.6090 125° Southeast 389 448 20,700 -2,074 Descending FlightAware ADS-B
Fri 10:14:59 AM 26.4320 -81.5470 126° Southeast 380 437 19,400 -2,021 Descending FlightAware ADS-B
Fri 10:15:54 AM 26.3760 -81.4580 125° Southeast 368 423 17,500 -2,044 Descending FlightAware ADS-B
Fri 10:16:30 AM 26.3430 -81.4060 125° Southeast 364 419 16,300 -2,071 Descending FlightAware ADS-B
Fri 10:17:18 AM 26.2960 -81.3270 124° Southeast 353 406 14,600 -2,000 Descending FlightAware ADS-B
Fri 10:17:57 AM 26.2680 -81.2720 120° Southeast 359 413 13,400 -2,000 Descending FlightAware ADS-B
Fri 10:18:42 AM 26.2290 -81.2000 121° Southeast 336 387 11,800 -2,022 Descending FlightAware ADS-B
Fri 10:19:26 AM 26.1950 -81.1340 120° Southeast 328 377 10,400 -1,367 Descending FlightAware ADS-B
Fri 10:20:01 AM 26.1700 -81.0870 121° Southeast 305 351 10,000 -871 Descending FlightAware ADS-B
Fri 10:20:28 AM 26.1500 -81.0500 121° Southeast 289 333 9,500 -1,333 Descending FlightAware ADS-B
Fri 10:20:55 AM 26.1310 -81.0160 122° Southeast 289 333 8,800 -1,615 Descending FlightAware ADS-B
Fri 10:21:20 AM 26.1130 -80.9840 122° Southeast 288 331 8,100 -1,463 Descending FlightAware ADS-B
Fri 10:21:36 AM 26.1050 -80.9620 112° Southeast 287 330 7,800 -1,317 Descending FlightAware ADS-B
Fri 10:22:01 AM 26.1020 -80.9290 96° East 283 326 7,200 -1,469 Descending FlightAware ADS-B
Fri 10:22:25 AM 26.0990 -80.8930 95° East 279 321 6,600 -1,358 Descending FlightAware ADS-B
Fri 10:22:54 AM 26.0970 -80.8500 93° East 278 320 6,000 -667 Descending FlightAware ADS-B
Fri 10:23:19 AM 26.0960 -80.8200 92° East 278 320 6,000  Level FlightAware ADS-B
Fri 10:24:40 AM 26.1090 -80.7100 82° East 272 313 6,000  Level FlightAware ADS-B
Fri 10:25:35 AM 26.1170 -80.6320 83° East 267 307 6,000 -300 Level FlightAware ADS-B
Fri 10:26:00 AM 26.1210 -80.5950 83° East 268 308 5,600 -982 Descending FlightAware ADS-B
Fri 10:26:30 AM 26.1260 -80.5530 82° East 267 307 5,100 -655 Descending FlightAware ADS-B
Fri 10:26:55 AM 26.1290 -80.5190 84° East 264 304 5,000 -439 Descending FlightAware ADS-B
Fri 10:27:11 AM 26.1320 -80.4990 81° East 262 302 4,800 -652 Descending FlightAware ADS-B
Fri 10:27:41 AM 26.1360 -80.4590 84° East 246 283 4,500 -655 Descending FlightAware ADS-B
Fri 10:28:06 AM 26.1390 -80.4280 84° East 233 268 4,200 -720 Descending FlightAware ADS-B
Fri 10:28:31 AM 26.1420 -80.4000 83° East 228 262 3,900 -933 Descending FlightAware ADS-B
Fri 10:28:51 AM 26.1440 -80.3760 85° East 221 254 3,500 -1,071 Descending FlightAware ADS-B
Fri 10:29:27 AM 26.1330 -80.3380 108° East 211 243 2,900 -667 Descending FlightAware ADS-B
Fri 10:29:36 AM 26.1280 -80.3310 129° Southeast 211 243 3,000 207 Climbing FlightAware ADS-B
Fri 10:29:56 AM 26.1110 -80.3200 150° Southeast 198 228 3,000 -130 Level FlightAware ADS-B
Fri 10:30:22 AM 26.0900 -80.3080 153° Southeast 195 224 2,900 -600 Descending FlightAware ADS-B
Fri 10:30:46 AM 26.0770 -80.2900 129° Southeast 191 220 2,500 -1,222 Descending FlightAware ADS-B
Fri 10:31:16 AM 26.0780 -80.2610 88° East 183 211 1,800 -1,377 Descending FlightAware ADS-B
Fri 10:31:47 AM 26.0770 -80.2320 92° East 177 204 1,100 -1,200 Descending FlightAware ADS-B
Fri 10:32:16 AM 26.0770 -80.2050 90° East 171 197 600 -941 Descending FlightAware ADS-B
Fri 10:32:38 AM 26.0770 -80.1850 90° East 169 194 300 -818 Descending FlightAware ADS-B

Login

Don't have an account? Register now (free) for customized features, flight alerts, and more!